< < Back
Terminal Aerodrome Forecast


Current Version              Previous Versions:   1  2  3  4  5  6  7  8  9  

Terminal Aerodrome Forecast

804
FTAK31 PAJN 311720
TAFAGS
TAF
PAGS 311720Z 3118/0118 VRB03KT P6SM VCSH SCT025 BKN030 OVC040
     FM010000 32004KT P6SM BKN150
      AMD NOT SKED=

Latest METAR

616
SAUS70 KWBC 311700 RRI
MTRAGS
METAR KAGS 311653Z 35007KT 10SM BKN012 OVC016 24/21 A3011 RMK AO2 SLP193
T02440211


USA.gov is the U.S. government's official web portal to all federal, state and local government web resources and services.